createdAt,value
2022-10-29T00:00:36.916Z,17.00
2022-10-29T00:03:04.068Z,17.00
2022-10-29T00:05:31.030Z,17.00
2022-10-29T00:07:59.247Z,17.00
2022-10-29T00:10:26.187Z,17.00
2022-10-29T00:12:53.030Z,17.00
2022-10-29T00:15:20.160Z,17.00
2022-10-29T00:17:46.996Z,16.90
2022-10-29T00:20:13.788Z,17.00
2022-10-29T00:22:40.592Z,17.00
2022-10-29T00:25:09.308Z,17.00
2022-10-29T00:27:36.284Z,17.00
2022-10-29T00:30:03.238Z,16.90
2022-10-29T00:32:30.070Z,17.00
2022-10-29T00:34:56.872Z,17.00
2022-10-29T00:37:23.688Z,17.10
2022-10-29T00:39:50.489Z,17.00
2022-10-29T00:42:18.804Z,17.00
2022-10-29T00:44:45.622Z,16.90
2022-10-29T00:47:19.419Z,16.90
2022-10-29T00:49:49.960Z,16.90
2022-10-29T00:52:20.835Z,16.90
2022-10-29T00:54:49.240Z,16.90
2022-10-29T00:57:22.203Z,17.00
2022-10-29T01:02:17.611Z,16.90
2022-10-29T01:04:45.906Z,17.10
2022-10-29T01:07:12.944Z,17.60
2022-10-29T01:09:40.178Z,16.80
2022-10-29T01:12:33.287Z,16.80
2022-10-29T01:15:07.806Z,16.70
2022-10-29T01:17:44.298Z,16.70
2022-10-29T01:20:45.685Z,16.70
2022-10-29T01:23:35.695Z,16.70
2022-10-29T01:26:24.586Z,16.80
2022-10-29T01:29:11.673Z,16.70
2022-10-29T01:31:45.884Z,16.70
2022-10-29T01:34:21.868Z,16.70
2022-10-29T01:36:56.145Z,16.70
2022-10-29T01:39:31.378Z,16.70
2022-10-29T01:42:06.049Z,16.70
2022-10-29T01:44:37.648Z,16.70
2022-10-29T01:47:12.343Z,17.70
2022-10-29T01:49:41.847Z,16.70
2022-10-29T01:52:13.133Z,16.60
2022-10-29T01:54:41.430Z,16.60
2022-10-29T01:57:28.799Z,16.60
2022-10-29T01:59:58.552Z,16.80
2022-10-29T02:02:30.645Z,16.60
2022-10-29T02:05:09.796Z,16.60
2022-10-29T02:07:47.117Z,16.50
2022-10-29T02:10:22.351Z,16.50
2022-10-29T02:12:51.918Z,16.50
2022-10-29T02:15:22.630Z,16.50
2022-10-29T02:17:50.888Z,16.40
2022-10-29T02:20:17.734Z,16.40
2022-10-29T02:22:44.895Z,16.40
2022-10-29T02:25:12.195Z,16.40
2022-10-29T02:27:39.065Z,16.40
2022-10-29T02:30:07.268Z,16.40
2022-10-29T02:32:34.107Z,16.30
2022-10-29T02:35:02.392Z,16.30
2022-10-29T02:37:29.280Z,16.20
2022-10-29T02:39:56.366Z,16.20
2022-10-29T02:42:23.415Z,16.20
2022-10-29T02:44:50.453Z,16.10
2022-10-29T02:47:17.311Z,16.20
2022-10-29T02:49:44.187Z,16.10
2022-10-29T02:52:12.422Z,16.10
2022-10-29T02:54:39.288Z,16.00
2022-10-29T02:57:06.179Z,16.00
2022-10-29T02:59:33.036Z,16.10
2022-10-29T03:04:27.335Z,16.00
2022-10-29T03:06:54.245Z,16.00
2022-10-29T03:09:22.625Z,16.10
2022-10-29T03:11:49.892Z,16.00
2022-10-29T03:14:16.754Z,16.10
2022-10-29T03:16:43.516Z,16.10
2022-10-29T03:19:10.401Z,16.10
2022-10-29T03:21:37.905Z,16.90
2022-10-29T03:24:05.480Z,17.90
2022-10-29T03:26:33.847Z,16.00
2022-10-29T03:31:27.861Z,16.00
2022-10-29T03:33:54.663Z,16.00
2022-10-29T03:36:21.504Z,15.90
2022-10-29T03:38:48.338Z,16.00
2022-10-29T03:41:15.101Z,15.90
2022-10-29T03:43:43.307Z,15.90
2022-10-29T03:46:10.238Z,15.90
2022-10-29T03:48:37.726Z,15.80
2022-10-29T03:51:06.318Z,15.80
2022-10-29T03:53:33.992Z,15.80
2022-10-29T03:56:01.524Z,15.70
2022-10-29T03:58:28.521Z,15.70
2022-10-29T04:01:01.632Z,15.70
2022-10-29T04:03:31.587Z,15.70
2022-10-29T04:05:59.846Z,15.60
2022-10-29T04:08:26.784Z,15.60
2022-10-29T04:10:53.931Z,15.60
2022-10-29T04:13:20.834Z,15.60
2022-10-29T04:15:47.849Z,15.50
2022-10-29T04:18:16.030Z,15.60
2022-10-29T04:22:03.257Z,15.50
2022-10-29T04:33:59.433Z,15.40
2022-10-29T04:36:26.312Z,15.30
2022-10-29T04:38:53.126Z,15.30
2022-10-29T04:41:19.930Z,15.40
2022-10-29T04:43:46.824Z,15.40
2022-10-29T04:46:13.627Z,15.40
2022-10-29T04:48:40.498Z,15.50
2022-10-29T04:51:18.885Z,15.40
2022-10-29T04:53:45.655Z,15.40
2022-10-29T04:56:12.447Z,15.60
2022-10-29T04:58:39.258Z,15.40
2022-10-29T05:01:06.292Z,16.10
2022-10-29T05:03:33.586Z,15.40
2022-10-29T05:06:02.634Z,15.40
2022-10-29T05:08:30.858Z,15.40
2022-10-29T05:10:57.791Z,15.80
2022-10-29T05:15:53.454Z,15.30
2022-10-29T05:18:20.611Z,15.30
2022-10-29T05:20:47.475Z,15.30
2022-10-29T05:23:14.519Z,15.20
2022-10-29T05:25:42.624Z,15.20
2022-10-29T05:28:13.011Z,15.20
2022-10-29T05:30:40.655Z,15.20
2022-10-29T05:33:07.938Z,15.20
2022-10-29T05:35:34.915Z,15.20
2022-10-29T05:38:02.214Z,15.20
2022-10-29T05:42:58.166Z,15.20
2022-10-29T05:45:25.183Z,15.20
2022-10-29T05:47:56.379Z,15.30
2022-10-29T05:50:23.314Z,15.30
2022-10-29T05:52:55.819Z,15.30
2022-10-29T05:55:23.171Z,15.40
2022-10-29T05:57:50.285Z,15.30
2022-10-29T06:00:18.710Z,15.30
2022-10-29T06:02:45.815Z,15.30
2022-10-29T06:10:08.216Z,15.30
2022-10-29T06:12:35.437Z,15.30
2022-10-29T06:15:02.331Z,15.20
2022-10-29T06:17:30.507Z,15.30
2022-10-29T06:19:57.350Z,15.30
2022-10-29T06:22:24.198Z,15.30
2022-10-29T06:24:50.998Z,15.30
2022-10-29T06:27:17.867Z,15.30
2022-10-29T06:32:11.883Z,15.20
2022-10-29T06:34:40.137Z,15.30
2022-10-29T06:37:06.978Z,15.50
2022-10-29T06:39:34.040Z,15.30
2022-10-29T06:44:27.986Z,15.30
2022-10-29T06:46:54.845Z,15.30
2022-10-29T06:49:22.187Z,16.10
2022-10-29T06:51:50.357Z,15.20
2022-10-29T06:54:17.179Z,16.10
2022-10-29T06:56:43.973Z,15.20
2022-10-29T06:59:10.795Z,15.20
2022-10-29T07:01:38.304Z,15.20
2022-10-29T07:04:05.482Z,15.10
2022-10-29T07:06:34.223Z,15.20
2022-10-29T07:09:02.385Z,15.20
2022-10-29T07:11:29.220Z,15.20
2022-10-29T07:13:56.050Z,15.20
2022-10-29T07:16:22.850Z,15.20
2022-10-29T07:21:16.788Z,15.20
2022-10-29T07:23:43.639Z,15.20
2022-10-29T07:26:11.815Z,15.20
2022-10-29T07:31:07.627Z,15.20
2022-10-29T07:38:28.852Z,15.40
2022-10-29T07:40:55.657Z,15.50
2022-10-29T07:43:23.909Z,15.60
2022-10-29T07:45:51.721Z,15.60
2022-10-29T07:48:19.632Z,15.60
2022-10-29T07:50:46.855Z,15.60
2022-10-29T07:53:13.666Z,15.70
2022-10-29T07:58:11.008Z,15.80
2022-10-29T08:00:41.026Z,15.80
2022-10-29T08:03:07.946Z,17.20
2022-10-29T08:08:02.941Z,16.00
2022-10-29T08:10:31.154Z,16.20
2022-10-29T08:13:00.773Z,16.10
2022-10-29T08:15:30.106Z,16.10
2022-10-29T08:17:58.377Z,16.10
2022-10-29T08:20:27.976Z,16.30
2022-10-29T08:22:55.163Z,16.20
2022-10-29T08:25:22.320Z,16.20
2022-10-29T08:27:58.530Z,16.40
2022-10-29T08:30:25.326Z,16.30
2022-10-29T08:32:52.120Z,16.30
2022-10-29T08:35:20.348Z,16.30
2022-10-29T08:40:23.353Z,16.40
2022-10-29T08:43:09.130Z,16.40
2022-10-29T08:45:40.226Z,16.40
2022-10-29T08:48:21.814Z,16.50
2022-10-29T08:50:53.339Z,16.70
2022-10-29T08:53:25.174Z,16.60
2022-10-29T08:55:54.453Z,16.70
2022-10-29T08:58:30.768Z,16.90
2022-10-29T09:00:58.704Z,17.00
2022-10-29T09:03:29.442Z,17.10
2022-10-29T09:06:07.819Z,17.50
2022-10-29T09:08:44.181Z,17.30
2022-10-29T09:11:23.747Z,17.70
2022-10-29T09:14:02.992Z,17.60
2022-10-29T09:16:43.359Z,17.40
2022-10-29T09:19:23.711Z,17.50
2022-10-29T09:22:00.462Z,17.60
2022-10-29T09:24:36.635Z,17.60
2022-10-29T09:27:11.521Z,18.00
2022-10-29T09:30:01.420Z,17.70
2022-10-29T09:32:33.557Z,17.70
2022-10-29T09:35:02.644Z,17.80
2022-10-29T09:37:43.659Z,17.90
2022-10-29T09:40:20.388Z,18.00
2022-10-29T09:42:48.003Z,18.00
2022-10-29T09:45:17.901Z,18.00
2022-10-29T09:47:55.901Z,18.10
2022-10-29T09:50:30.456Z,18.10
2022-10-29T09:52:59.809Z,18.10
2022-10-29T09:55:31.128Z,18.20
2022-10-29T09:57:58.399Z,18.30
2022-10-29T10:00:27.724Z,18.50
2022-10-29T10:03:00.100Z,19.50
2022-10-29T10:05:29.546Z,18.60
2022-10-29T10:08:10.046Z,18.60
2022-10-29T10:10:52.414Z,18.60
2022-10-29T10:13:21.857Z,18.70
2022-10-29T10:15:54.564Z,18.60
2022-10-29T10:18:23.475Z,18.70
2022-10-29T10:21:04.646Z,18.70
2022-10-29T10:23:43.344Z,18.80
2022-10-29T10:26:29.597Z,18.90
2022-10-29T10:29:11.979Z,18.90
2022-10-29T10:31:38.896Z,19.00
2022-10-29T10:34:13.600Z,21.40
2022-10-29T10:36:42.568Z,19.10
2022-10-29T10:39:21.591Z,19.80
2022-10-29T10:41:49.967Z,20.00
2022-10-29T10:44:19.023Z,19.10
2022-10-29T10:46:46.512Z,19.20
2022-10-29T10:49:15.957Z,20.10
2022-10-29T10:51:45.024Z,19.40
2022-10-29T10:54:33.212Z,19.50
2022-10-29T10:57:01.893Z,19.50
2022-10-29T10:59:41.336Z,20.80
2022-10-29T11:02:20.569Z,19.70
2022-10-29T11:04:54.906Z,19.70
2022-10-29T11:07:23.601Z,19.70
2022-10-29T11:09:55.613Z,19.70
2022-10-29T11:12:29.635Z,19.70
2022-10-29T11:15:01.669Z,21.10
2022-10-29T11:17:32.361Z,19.90
2022-10-29T11:20:02.371Z,20.60
2022-10-29T11:22:34.303Z,20.60
2022-10-29T11:25:13.859Z,20.10
2022-10-29T11:27:45.376Z,20.10
2022-10-29T11:30:14.673Z,21.10
2022-10-29T11:32:52.151Z,20.10
2022-10-29T11:35:24.251Z,20.20
2022-10-29T11:38:00.051Z,20.20
2022-10-29T11:40:35.667Z,20.20
2022-10-29T11:43:08.418Z,20.20
2022-10-29T11:45:44.703Z,20.30
2022-10-29T11:48:21.843Z,20.30
2022-10-29T11:50:55.260Z,20.30
2022-10-29T11:53:33.108Z,20.40
2022-10-29T11:56:09.860Z,20.40
2022-10-29T11:58:46.002Z,20.30
2022-10-29T12:01:24.071Z,20.30
2022-10-29T12:04:03.472Z,20.30
2022-10-29T12:06:39.500Z,20.30
2022-10-29T12:09:31.079Z,20.30
2022-10-29T12:12:08.325Z,20.40
2022-10-29T12:14:41.587Z,20.40
2022-10-29T12:17:14.021Z,21.90
2022-10-29T12:19:50.609Z,20.50
2022-10-29T12:22:28.413Z,20.60
2022-10-29T12:25:21.504Z,20.60
2022-10-29T12:27:58.963Z,20.60
2022-10-29T12:30:26.879Z,20.60
2022-10-29T12:33:00.793Z,20.50
2022-10-29T12:35:31.414Z,20.50
2022-10-29T12:38:30.772Z,20.50
2022-10-29T12:41:02.769Z,20.50
2022-10-29T12:43:34.857Z,20.70
2022-10-29T12:46:20.038Z,21.60
2022-10-29T12:48:54.822Z,20.50
2022-10-29T12:51:29.604Z,21.20
2022-10-29T12:54:20.120Z,20.70
2022-10-29T12:56:49.476Z,20.60
2022-10-29T12:59:36.525Z,20.70
2022-10-29T13:02:25.961Z,20.80
2022-10-29T13:05:11.382Z,20.80
2022-10-29T13:07:59.559Z,20.80
2022-10-29T13:10:49.079Z,20.70
2022-10-29T13:13:23.667Z,20.80
2022-10-29T13:16:00.580Z,20.90
2022-10-29T13:18:31.480Z,21.00
2022-10-29T13:20:58.904Z,21.10
2022-10-29T13:23:37.259Z,21.10
2022-10-29T13:26:05.860Z,21.20
2022-10-29T13:28:50.510Z,21.20
2022-10-29T13:31:40.678Z,21.30
2022-10-29T13:34:07.461Z,21.30
2022-10-29T13:36:38.010Z,21.30
2022-10-29T13:39:19.451Z,21.30
2022-10-29T13:41:53.110Z,21.30
2022-10-29T13:44:22.893Z,21.30
2022-10-29T13:46:54.846Z,21.30
2022-10-29T13:49:24.944Z,21.40
2022-10-29T13:51:58.914Z,21.30
2022-10-29T13:54:37.314Z,21.30
2022-10-29T13:57:14.331Z,21.30
2022-10-29T13:59:43.172Z,21.30
2022-10-29T14:02:21.784Z,23.90
2022-10-29T14:04:52.140Z,21.40
2022-10-29T14:10:03.280Z,21.40
2022-10-29T14:12:32.193Z,21.40
2022-10-29T14:15:05.697Z,21.80
2022-10-29T14:17:32.598Z,21.50
2022-10-29T14:19:59.415Z,22.00
2022-10-29T14:22:35.540Z,21.30
2022-10-29T14:25:22.167Z,21.20
2022-10-29T14:28:09.740Z,21.60
2022-10-29T14:30:36.927Z,21.00
2022-10-29T14:33:18.270Z,20.80
2022-10-29T14:35:45.826Z,20.80
2022-10-29T14:38:14.134Z,21.10
2022-10-29T14:40:42.373Z,21.10
2022-10-29T14:43:22.681Z,20.70
2022-10-29T14:45:50.394Z,20.60
2022-10-29T14:48:18.642Z,20.50
2022-10-29T14:50:47.173Z,22.30
2022-10-29T14:53:27.404Z,20.50
2022-10-29T14:55:54.352Z,20.60
2022-10-29T15:00:55.724Z,20.50
2022-10-29T15:03:25.464Z,20.40
2022-10-29T15:06:08.624Z,20.40
2022-10-29T15:08:39.872Z,20.30
2022-10-29T15:11:38.834Z,20.30
2022-10-29T15:14:24.050Z,20.20
2022-10-29T15:16:51.240Z,20.20
2022-10-29T15:21:45.955Z,20.10
2022-10-29T15:24:20.377Z,20.00
2022-10-29T15:26:52.823Z,19.90
2022-10-29T15:29:27.891Z,19.90
2022-10-29T15:31:58.257Z,19.80
2022-10-29T15:34:30.978Z,19.80
2022-10-29T15:37:00.013Z,19.70
2022-10-29T15:40:10.859Z,19.60
2022-10-29T15:42:45.856Z,19.60
2022-10-29T15:45:26.684Z,19.50
2022-10-29T15:47:58.025Z,19.50
2022-10-29T15:50:40.153Z,19.40
2022-10-29T15:53:18.383Z,19.40
2022-10-29T15:55:54.403Z,19.40
2022-10-29T15:58:23.552Z,19.20
2022-10-29T16:01:29.447Z,19.20
2022-10-29T16:03:56.966Z,19.20
2022-10-29T16:06:23.994Z,19.20
2022-10-29T16:08:58.320Z,19.20
2022-10-29T16:11:26.889Z,21.40
2022-10-29T16:13:56.888Z,19.10
2022-10-29T16:16:25.296Z,19.00
2022-10-29T16:18:53.383Z,19.00
2022-10-29T16:21:21.875Z,18.80
2022-10-29T16:23:49.268Z,19.00
2022-10-29T16:33:10.656Z,18.80
2022-10-29T16:38:50.374Z,18.70
2022-10-29T16:41:19.290Z,18.60
2022-10-29T16:43:46.960Z,18.60
2022-10-29T16:46:15.690Z,18.60
2022-10-29T16:48:43.366Z,18.60
2022-10-29T16:51:10.233Z,18.50
2022-10-29T16:53:37.147Z,18.50
2022-10-29T16:56:04.746Z,18.50
2022-10-29T16:58:31.641Z,18.40
2022-10-29T17:01:02.617Z,20.00
2022-10-29T17:03:31.376Z,18.30
2022-10-29T17:06:03.306Z,18.30
2022-10-29T17:08:31.828Z,18.20
2022-10-29T17:10:59.433Z,18.20
2022-10-29T17:13:26.437Z,18.20
2022-10-29T17:15:53.324Z,18.10
2022-10-29T17:18:20.169Z,18.90
2022-10-29T17:20:56.716Z,18.10
2022-10-29T17:25:54.704Z,18.00
2022-10-29T17:28:22.058Z,17.90
2022-10-29T17:30:49.214Z,17.90
2022-10-29T17:33:16.429Z,17.90
2022-10-29T17:35:43.523Z,17.90
2022-10-29T17:38:11.886Z,17.80
2022-10-29T17:40:39.016Z,17.80
2022-10-29T17:43:06.096Z,17.80
2022-10-29T17:45:32.945Z,17.70
2022-10-29T17:48:00.306Z,18.40
2022-10-29T17:55:26.195Z,17.60
2022-10-29T17:57:53.023Z,17.60
2022-10-29T18:00:20.028Z,17.60
2022-10-29T18:02:48.679Z,17.50
2022-10-29T18:05:15.738Z,18.70
2022-10-29T18:07:42.577Z,17.50
2022-10-29T18:10:09.750Z,17.40
2022-10-29T18:12:38.002Z,17.40
2022-10-29T18:15:05.364Z,17.30
2022-10-29T18:17:33.064Z,17.30
2022-10-29T18:19:59.921Z,18.30
2022-10-29T18:22:26.815Z,17.30
2022-10-29T18:24:53.884Z,17.30
2022-10-29T18:27:20.735Z,17.30
2022-10-29T18:29:49.048Z,17.20
2022-10-29T18:32:16.198Z,17.90
2022-10-29T18:34:43.338Z,17.20
2022-10-29T18:39:38.075Z,17.20
2022-10-29T18:42:05.090Z,17.20
2022-10-29T18:44:32.143Z,17.20
2022-10-29T18:47:00.406Z,17.10
2022-10-29T18:51:54.911Z,17.10
2022-10-29T18:54:21.867Z,17.10
2022-10-29T19:01:43.549Z,17.10
2022-10-29T19:04:15.175Z,17.10
2022-10-29T19:06:42.312Z,19.90
2022-10-29T19:09:10.018Z,17.10
2022-10-29T19:11:36.994Z,17.10
2022-10-29T19:14:05.897Z,17.10
2022-10-29T19:16:33.404Z,17.00
2022-10-29T19:19:02.955Z,17.00
2022-10-29T19:21:34.507Z,17.00
2022-10-29T19:24:01.651Z,16.90
2022-10-29T19:26:30.681Z,16.90
2022-10-29T19:28:59.569Z,16.90
2022-10-29T19:31:28.589Z,16.90
2022-10-29T19:33:57.333Z,16.90
2022-10-29T19:36:25.364Z,16.90
2022-10-29T19:38:53.550Z,16.90
2022-10-29T19:41:27.171Z,16.80
2022-10-29T19:43:54.074Z,16.90
2022-10-29T19:46:24.588Z,16.70
2022-10-29T19:48:52.892Z,16.70
2022-10-29T19:51:20.505Z,16.70
2022-10-29T19:53:47.915Z,18.10
2022-10-29T19:56:17.427Z,16.70
2022-10-29T19:58:44.694Z,16.70
2022-10-29T20:01:14.724Z,16.60
2022-10-29T20:03:42.332Z,16.50
2022-10-29T20:06:09.605Z,18.50
2022-10-29T20:11:04.215Z,16.50
2022-10-29T20:13:32.612Z,16.40
2022-10-29T20:18:26.913Z,16.40
2022-10-29T20:20:55.348Z,16.90
2022-10-29T20:23:22.572Z,16.30
2022-10-29T20:30:45.011Z,16.30
2022-10-29T20:35:38.964Z,16.20
2022-10-29T20:40:32.883Z,16.20
2022-10-29T20:42:59.702Z,18.60
2022-10-29T20:45:26.554Z,16.20
2022-10-29T20:47:54.934Z,16.20
2022-10-29T20:50:22.075Z,16.20
2022-10-29T20:55:17.242Z,16.20
2022-10-29T20:57:44.036Z,16.20
2022-10-29T21:00:11.631Z,16.20
2022-10-29T21:02:38.454Z,16.30
2022-10-29T21:05:07.232Z,16.30
2022-10-29T21:07:34.012Z,16.30
2022-10-29T21:10:00.837Z,16.40
2022-10-29T21:12:27.600Z,16.70
2022-10-29T21:14:54.358Z,16.90
2022-10-29T21:17:24.433Z,16.40
2022-10-29T21:19:51.194Z,16.40
2022-10-29T21:22:19.364Z,16.40
2022-10-29T21:24:46.231Z,16.40
2022-10-29T21:27:13.214Z,16.50
2022-10-29T21:32:10.072Z,16.40
2022-10-29T21:37:05.400Z,16.30
2022-10-29T21:39:34.004Z,16.30
2022-10-29T21:42:00.801Z,16.30
2022-10-29T21:44:27.566Z,16.30
2022-10-29T21:46:54.560Z,16.30
2022-10-29T21:54:16.821Z,16.20
2022-10-29T21:56:44.971Z,17.30
2022-10-29T21:59:11.764Z,16.30
2022-10-29T22:04:05.934Z,16.00
2022-10-29T22:06:32.718Z,16.00
2022-10-29T22:09:00.241Z,17.40
2022-10-29T22:11:28.470Z,16.00
2022-10-29T22:13:56.594Z,16.00
2022-10-29T22:16:23.704Z,15.90
2022-10-29T22:18:51.037Z,15.90
2022-10-29T22:21:19.687Z,15.90
2022-10-29T22:23:47.885Z,15.90
2022-10-29T22:26:16.445Z,15.80
2022-10-29T22:31:12.084Z,15.80
2022-10-29T22:36:08.777Z,15.70
2022-10-29T22:41:07.536Z,15.70
2022-10-29T22:43:34.810Z,15.70
2022-10-29T22:48:30.517Z,15.50
2022-10-29T22:51:01.800Z,15.90
2022-10-29T22:53:28.676Z,15.50
2022-10-29T22:55:55.475Z,15.50
2022-10-29T22:58:22.612Z,15.40
2022-10-29T23:00:49.735Z,15.50
2022-10-29T23:03:16.528Z,15.50
2022-10-29T23:05:44.711Z,15.50
2022-10-29T23:10:38.661Z,15.40
2022-10-29T23:15:33.080Z,15.40
2022-10-29T23:18:00.119Z,15.30
2022-10-29T23:20:27.131Z,15.50
2022-10-29T23:22:55.577Z,15.40
2022-10-29T23:27:53.975Z,15.40
2022-10-29T23:30:20.794Z,15.40
2022-10-29T23:35:14.736Z,15.40
2022-10-29T23:37:41.564Z,15.40
2022-10-29T23:40:11.336Z,15.50
2022-10-29T23:42:38.102Z,15.50
2022-10-29T23:45:07.663Z,15.50
2022-10-29T23:47:34.740Z,15.50
2022-10-29T23:50:01.536Z,15.50
2022-10-29T23:52:28.351Z,15.50
2022-10-29T23:54:55.302Z,15.50
2022-10-29T23:57:23.512Z,15.50
2022-10-29T23:59:50.309Z,15.40
